メインページ
METAR-TAF:

METAR-TAF

空港 :

パランガ国際空港

パランガ, リトアニア

緯度: 55-55-12N, 経度: 021-03E, 海抜: 10m

現時点の気象観測

当レポートは30分前の09:50(UTC)に作成
変向風 4kt
気温 18°C
湿度 77%
気圧 1014 hPa
視程10km以上
高度700ftの雲は散在している

METAR: EYPA 170950Z VRB04KT 9999 SCT007 18/14 Q1014

時間: 13:20 (10:20 UTC)

予報

当レポートは1時間24分前の08:56(UTC)に作成
予報は17日の 08時(UTC)から 18日の 06時(UTC)まで有効
変向風 5kt
視程: 6000m
高度500ftの千切れ雲あり
17日の 11時(UTC)から 17日の 13時(UTC)まで徐々に
高度1500ftの千切れ雲あり
17日の 16時(UTC)から 17日の 18時(UTC)まで徐々に
高度3000ftの雲は散在している

TAF: EYPA 170856Z 1708/1806 VRB05KT 6000 BKN005 BECMG 1711/1713 BKN015 BECMG 1716/1718 SCT030

4,000以上の空港の気象観測と天気予報(METAR報とTAF報)

利用可能な観測所は地図上に黄色い丸と赤い丸で示す。

丸の上にカーソルを重ねると観測所名を参照できる。

次にクリックすると気象観測と天気予報を参照できる。

マップの切り替え:黒色「×」印の緑ボタンをクリックして拡大、「-」印の緑ボタンをクリックして縮小、緑色の三角印をクリックして隣りの地図に切り替え


METAR-TAF: